Time;durP1;ratioP1;P1;durP2;ratioP2;P2;SDS_P1;SDS_P2;PMS_P1;PMS_P2;Temp;Humidity;BMP_temperature;BMP_pressure;BME280_temperature;BME280_humidity;BME280_pressure;Samples;Min_cycle;Max_cycle;Signal;HPM_P1;HPM_P2
2021/03/05 00:01:38;;;;;;;;;;;;;;;8.43;59.13;101446.13;5005473;28;7348;-78
2021/03/05 00:04:04;;;;;;;;;;;;;;;8.43;59.42;101448.72;5005281;28;7673;-78
2021/03/05 00:06:30;;;;;;;;;;;;;;;8.40;59.85;101449.44;5018309;28;8465;-78
2021/03/05 00:08:55;;;;;;;;;;;;;;;8.40;59.29;101456.31;5002978;28;8864;-78
2021/03/05 00:11:21;;;;;;;;;;;;;;;8.39;59.56;101458.03;5002877;28;8019;-78
2021/03/05 00:13:46;;;;;;;;;;;;;;;8.38;59.24;101455.38;5006229;28;7100;-78
2021/03/05 00:16:12;;;;;;;;;;;;;;;8.33;59.50;101462.91;5007358;28;7334;-78
2021/03/05 00:18:37;;;;;;;;;;;;;;;8.34;59.74;101469.00;5004779;28;7871;-78
2021/03/05 00:21:03;;;;;;;;;;;;;;;8.34;59.66;101474.19;5022397;28;8425;-78
2021/03/05 00:23:28;;;;;;;;;;;;;;;8.31;59.64;101463.66;4984810;28;8745;-78
2021/03/05 00:25:54;;;;;;;;;;;;;;;8.32;59.47;101473.19;5004103;28;7074;-78
2021/03/05 00:28:20;;;;;;;;;;;;;;;8.31;59.12;101469.72;5001379;28;8483;-78
2021/03/05 00:30:45;;;;;;;;;;;;;;;8.30;59.84;101472.25;5003859;28;7849;-78
2021/03/05 00:33:11;;;;;;;;;;;;;;;8.29;59.59;101478.25;5018739;28;7414;-78
2021/03/05 00:35:36;;;;;;;;;;;;;;;8.30;59.24;101485.19;5003015;28;6938;-78
2021/03/05 00:38:02;;;;;;;;;;;;;;;8.24;60.17;101476.34;5019780;28;6783;-78
2021/03/05 00:40:27;;;;;;;;;;;;;;;8.26;59.75;101478.13;4999369;28;7623;-78
2021/03/05 00:42:53;;;;;;;;;;;;;;;8.24;59.62;101484.09;5002928;28;7329;-78
2021/03/05 00:45:20;;;;;;;;;;;;;;;8.24;59.78;101493.56;5019005;28;6920;-78
2021/03/05 00:47:45;;;;;;;;;;;;;;;8.22;59.57;101480.56;4985085;28;9444;-78
2021/03/05 00:50:12;;;;;;;;;;;;;;;8.18;59.62;101493.28;5002321;28;6824;-78
2021/03/05 00:52:37;;;;;;;;;;;;;;;8.19;59.65;101495.94;5003449;28;7173;-78
2021/03/05 00:55:05;;;;;;;;;;;;;;;8.19;59.80;101498.53;5002223;28;6833;-78
2021/03/05 00:57:30;;;;;;;;;;;;;;;8.20;59.34;101491.63;5003603;28;6802;-78
2021/03/05 00:59:56;;;;;;;;;;;;;;;8.18;59.62;101489.00;5003528;28;6779;-78
2021/03/05 01:02:21;;;;;;;;;;;;;;;8.18;59.59;101491.56;5005892;28;6950;-78
2021/03/05 01:04:47;;;;;;;;;;;;;;;8.17;59.85;101487.22;5001542;28;8480;-78
2021/03/05 01:07:13;;;;;;;;;;;;;;;8.16;59.38;101500.97;5002960;28;8866;-78
2021/03/05 01:09:38;;;;;;;;;;;;;;;8.15;59.81;101503.50;5006381;28;9488;-78
2021/03/05 01:12:04;;;;;;;;;;;;;;;8.15;59.67;101504.38;5004957;28;7060;-78
2021/03/05 01:14:30;;;;;;;;;;;;;;;8.13;59.34;101506.00;5001496;28;6897;-78
2021/03/05 01:16:55;;;;;;;;;;;;;;;8.10;59.59;101510.16;5002158;28;8372;-78
2021/03/05 01:19:21;;;;;;;;;;;;;;;8.12;59.68;101509.41;5002401;28;6962;-78
2021/03/05 01:21:46;;;;;;;;;;;;;;;8.11;59.35;101510.25;4999141;28;7179;-78
2021/03/05 01:24:12;;;;;;;;;;;;;;;8.09;59.23;101511.88;5002158;28;7387;-78
2021/03/05 01:26:40;;;;;;;;;;;;;;;8.07;59.77;101522.97;5003063;28;6792;-78
2021/03/05 01:29:07;;;;;;;;;;;;;;;8.05;59.56;101517.72;5003090;28;7316;-78
2021/03/05 01:31:33;;;;;;;;;;;;;;;8.04;59.83;101518.53;5006082;28;13032;-78
2021/03/05 01:33:59;;;;;;;;;;;;;;;8.03;59.75;101515.91;5007939;28;6895;-78
2021/03/05 01:36:24;;;;;;;;;;;;;;;8.00;59.97;101514.03;5009102;28;6776;-78
2021/03/05 01:38:50;;;;;;;;;;;;;;;8.00;59.48;101516.59;5008033;28;7417;-78
2021/03/05 01:41:15;;;;;;;;;;;;;;;7.99;59.29;101516.53;5008474;28;7315;-78
2021/03/05 01:43:41;;;;;;;;;;;;;;;7.98;59.59;101519.94;5011831;28;6780;-78
2021/03/05 01:46:06;;;;;;;;;;;;;;;7.95;59.89;101520.69;5013911;28;7229;-78
2021/03/05 01:48:32;;;;;;;;;;;;;;;7.93;59.45;101517.16;5020532;28;6834;-78
2021/03/05 01:51:16;;;;;;;;;;;;;;;7.90;59.42;101504.09;5028244;28;7209;-78
2021/03/05 01:53:42;;;;;;;;;;;;;;;7.88;59.91;101519.53;5016656;28;13417;-78
2021/03/05 01:56:08;;;;;;;;;;;;;;;7.85;60.07;101516.81;5018136;28;6784;-78
2021/03/05 01:58:33;;;;;;;;;;;;;;;7.84;59.70;101516.75;5001037;28;7079;-78
2021/03/05 02:01:07;;;;;;;;;;;;;;;7.81;59.82;101521.78;5002296;28;7856;-78
2021/03/05 02:03:32;;;;;;;;;;;;;;;7.77;59.65;101509.50;4982334;28;7636;-79
2021/03/05 02:05:58;;;;;;;;;;;;;;;7.75;59.92;101518.88;4992456;28;6800;-78
2021/03/05 02:08:24;;;;;;;;;;;;;;;7.75;59.95;101512.00;5000552;28;6779;-78
2021/03/05 02:10:49;;;;;;;;;;;;;;;7.74;60.12;101522.28;4998119;28;9333;-78
2021/03/05 02:13:15;;;;;;;;;;;;;;;7.69;60.09;101516.91;5003396;28;6799;-78
2021/03/05 02:15:40;;;;;;;;;;;;;;;7.69;59.87;101523.78;5004002;28;6951;-78
2021/03/05 02:18:18;;;;;;;;;;;;;;;7.67;60.00;101528.00;5017423;28;6802;-78
2021/03/05 02:20:52;;;;;;;;;;;;;;;7.67;59.43;101522.81;5000870;28;10973;-78
2021/03/05 02:23:30;;;;;;;;;;;;;;;7.63;59.75;101522.69;5002337;28;6827;-79
2021/03/05 02:26:01;;;;;;;;;;;;;;;7.62;60.02;101526.09;5001093;28;6811;-78
2021/03/05 02:29:04;;;;;;;;;;;;;;;7.60;60.03;101525.09;4999842;28;7369;-78
2021/03/05 02:32:09;;;;;;;;;;;;;;;7.55;60.12;101524.00;5013619;28;11292;-78
2021/03/05 02:34:35;;;;;;;;;;;;;;;7.56;59.56;101519.72;4990032;28;10985;-78
2021/03/05 02:37:04;;;;;;;;;;;;;;;7.56;60.01;101527.47;5000974;28;8387;-78
2021/03/05 02:39:46;;;;;;;;;;;;;;;7.53;60.12;101535.97;5005517;28;7207;-78
2021/03/05 02:42:31;;;;;;;;;;;;;;;7.52;60.23;101536.78;5008323;28;12854;-78
2021/03/05 02:45:02;;;;;;;;;;;;;;;7.51;60.30;101544.47;5019308;28;7430;-78
2021/03/05 02:47:28;;;;;;;;;;;;;;;7.49;60.07;101549.56;5019779;28;6807;-78
2021/03/05 02:49:54;;;;;;;;;;;;;;;7.49;59.86;101544.41;5006044;28;7201;-78
2021/03/05 02:52:20;;;;;;;;;;;;;;;7.47;60.05;101545.13;5002820;28;6837;-78
2021/03/05 02:54:45;;;;;;;;;;;;;;;7.47;59.88;101539.97;5004288;28;6959;-78
2021/03/05 02:57:14;;;;;;;;;;;;;;;7.45;59.88;101541.59;5003722;28;8028;-78
2021/03/05 02:59:40;;;;;;;;;;;;;;;7.46;59.84;101543.38;5006519;28;7341;-78
2021/03/05 03:02:05;;;;;;;;;;;;;;;7.44;59.99;101535.53;5005222;28;7291;-78
2021/03/05 03:04:31;;;;;;;;;;;;;;;7.44;59.75;101545.00;5019475;28;6788;-78
2021/03/05 03:06:57;;;;;;;;;;;;;;;7.44;59.82;101552.75;5005465;28;6849;-78
2021/03/05 03:09:22;;;;;;;;;;;;;;;7.42;60.26;101554.38;5004702;28;7141;-78
2021/03/05 03:11:48;;;;;;;;;;;;;;;7.42;60.21;101551.78;5006275;28;7389;-78
2021/03/05 03:14:13;;;;;;;;;;;;;;;7.40;59.93;101551.69;5003511;28;6945;-78
2021/03/05 03:16:39;;;;;;;;;;;;;;;7.39;60.41;101557.66;5004805;28;6839;-78
2021/03/05 03:19:05;;;;;;;;;;;;;;;7.37;60.00;101561.88;5006337;28;12571;-78
2021/03/05 03:21:31;;;;;;;;;;;;;;;7.38;59.90;101552.44;5004833;28;6841;-78
2021/03/05 03:23:57;;;;;;;;;;;;;;;7.38;60.25;101560.19;5019098;28;8515;-78
2021/03/05 03:26:23;;;;;;;;;;;;;;;7.36;60.05;101562.69;5006730;28;6817;-78
2021/03/05 03:28:48;;;;;;;;;;;;;;;7.35;60.63;101563.50;5006066;28;7106;-78
2021/03/05 03:31:14;;;;;;;;;;;;;;;7.32;60.19;101559.06;5005599;28;7850;-78
2021/03/05 03:33:40;;;;;;;;;;;;;;;7.34;60.24;101561.72;5002328;28;7462;-78
2021/03/05 03:36:06;;;;;;;;;;;;;;;7.32;60.31;101563.34;5015457;28;7317;-78
2021/03/05 03:38:32;;;;;;;;;;;;;;;7.32;60.14;101568.53;5006543;28;8841;-78
2021/03/05 03:40:58;;;;;;;;;;;;;;;7.32;60.14;101573.69;5020648;28;7126;-78
2021/03/05 03:43:24;;;;;;;;;;;;;;;7.32;60.20;101572.00;5004188;28;6818;-78
2021/03/05 03:45:49;;;;;;;;;;;;;;;7.32;60.35;101565.94;4989869;28;7503;-78
2021/03/05 03:48:15;;;;;;;;;;;;;;;7.29;60.32;101577.00;5004910;28;7497;-78
2021/03/05 03:50:46;;;;;;;;;;;;;;;7.29;60.25;101573.53;5002415;28;6804;-78
2021/03/05 03:53:14;;;;;;;;;;;;;;;7.24;60.51;101573.31;5003810;28;11069;-78
2021/03/05 03:55:39;;;;;;;;;;;;;;;7.27;60.28;101577.75;4976055;28;11218;-78
2021/03/05 03:58:05;;;;;;;;;;;;;;;7.27;60.33;101580.34;4969404;28;6965;-78
2021/03/05 04:00:30;;;;;;;;;;;;;;;7.27;60.07;101583.81;5001253;28;6780;-78
2021/03/05 04:02:56;;;;;;;;;;;;;;;7.28;60.33;101584.69;5002758;28;8528;-78
2021/03/05 04:05:27;;;;;;;;;;;;;;;7.26;60.00;101581.16;5003786;28;7650;-78
2021/03/05 04:07:54;;;;;;;;;;;;;;;7.24;60.49;101582.78;5004187;28;7257;-78
2021/03/05 04:10:19;;;;;;;;;;;;;;;7.23;59.97;101586.16;5003357;28;6796;-78
2021/03/05 04:12:45;;;;;;;;;;;;;;;7.22;60.30;101580.13;5003774;28;7119;-78
2021/03/05 04:15:12;;;;;;;;;;;;;;;7.23;60.31;101592.22;5003528;28;8622;-78
2021/03/05 04:17:37;;;;;;;;;;;;;;;7.21;60.57;101593.84;5002889;28;7212;-78
2021/03/05 04:20:03;;;;;;;;;;;;;;;7.19;60.79;101581.63;5003891;28;6795;-78
2021/03/05 04:22:29;;;;;;;;;;;;;;;7.19;60.70;101592.84;5003456;28;8532;-78
2021/03/05 04:24:54;;;;;;;;;;;;;;;7.21;60.52;101590.38;5006787;28;7316;-78
2021/03/05 04:27:20;;;;;;;;;;;;;;;7.19;60.42;101603.19;5020156;28;8533;-78
2021/03/05 04:29:45;;;;;;;;;;;;;;;7.16;60.92;101595.28;5020340;28;6801;-78
2021/03/05 04:32:11;;;;;;;;;;;;;;;7.18;60.75;101597.94;5024385;28;7242;-79
2021/03/05 04:34:37;;;;;;;;;;;;;;;7.18;60.83;101605.69;5020650;28;7037;-78
2021/03/05 04:37:02;;;;;;;;;;;;;;;7.19;60.58;101599.72;5006305;28;6951;-78
2021/03/05 04:39:28;;;;;;;;;;;;;;;7.17;60.49;101609.09;5007461;28;6968;-78
2021/03/05 04:41:53;;;;;;;;;;;;;;;7.16;60.66;101612.47;5006815;28;6890;-79
2021/03/05 04:44:19;;;;;;;;;;;;;;;7.16;60.56;101607.31;5008757;28;6811;-78
2021/03/05 04:46:44;;;;;;;;;;;;;;;7.16;60.60;101610.78;5003379;28;10515;-78
2021/03/05 04:49:10;;;;;;;;;;;;;;;7.16;60.87;101612.47;5016539;28;7206;-78
2021/03/05 04:51:35;;;;;;;;;;;;;;;7.16;60.52;101615.06;5004033;28;7144;-78
2021/03/05 04:54:01;;;;;;;;;;;;;;;7.14;61.01;101621.84;5004262;28;7007;-78
2021/03/05 04:56:26;;;;;;;;;;;;;;;7.13;60.66;101628.72;5001818;28;6809;-78
2021/03/05 04:58:52;;;;;;;;;;;;;;;7.13;60.48;101626.13;5016901;28;6818;-78
2021/03/05 05:01:18;;;;;;;;;;;;;;;7.13;60.74;101628.72;5002998;28;7162;-78
2021/03/05 05:03:43;;;;;;;;;;;;;;;7.13;61.15;101630.41;5003084;28;8415;-78
2021/03/05 05:06:09;;;;;;;;;;;;;;;7.12;60.79;101629.53;5000941;28;7500;-76
2021/03/05 05:08:35;;;;;;;;;;;;;;;7.10;60.69;101636.31;4997899;28;6811;-76
2021/03/05 05:11:00;;;;;;;;;;;;;;;7.11;60.98;101643.25;4999479;28;7609;-76
2021/03/05 05:13:26;;;;;;;;;;;;;;;7.10;60.62;101636.31;5000246;28;7072;-76
2021/03/05 05:15:51;;;;;;;;;;;;;;;7.10;61.02;101648.34;4998606;28;7221;-75
2021/03/05 05:18:17;;;;;;;;;;;;;;;7.09;60.77;101642.28;5014391;28;7348;-77
2021/03/05 05:20:42;;;;;;;;;;;;;;;7.07;60.60;101646.50;4998445;28;7360;-77
2021/03/05 05:23:08;;;;;;;;;;;;;;;7.08;60.78;101649.97;4999483;28;7106;-77
2021/03/05 05:25:34;;;;;;;;;;;;;;;7.08;60.83;101655.13;4974054;28;7239;-77
2021/03/05 05:27:59;;;;;;;;;;;;;;;7.07;60.77;101655.94;4980941;28;7310;-80
2021/03/05 05:30:25;;;;;;;;;;;;;;;7.04;60.93;101659.25;4997637;28;6990;-77
2021/03/05 05:32:50;;;;;;;;;;;;;;;7.05;60.76;101661.03;4998846;28;6794;-75
2021/03/05 05:35:16;;;;;;;;;;;;;;;7.03;61.01;101665.22;5000399;28;6803;-76
2021/03/05 05:37:41;;;;;;;;;;;;;;;7.03;60.60;101661.75;4999867;28;7796;-77
2021/03/05 05:40:07;;;;;;;;;;;;;;;7.03;60.89;101664.34;5000488;28;7841;-77
2021/03/05 05:42:33;;;;;;;;;;;;;;;7.00;60.88;101667.63;4995871;28;8852;-77
2021/03/05 05:44:58;;;;;;;;;;;;;;;7.01;60.92;101666.84;4995379;28;8294;-76
2021/03/05 05:47:24;;;;;;;;;;;;;;;7.00;61.03;101676.25;4996640;28;6994;-76
2021/03/05 05:49:50;;;;;;;;;;;;;;;7.00;60.41;101671.09;4998499;28;6776;-77
2021/03/05 05:52:20;;;;;;;;;;;;;;;7.06;60.61;101677.41;4996392;28;9801;-82
2021/03/05 05:54:49;;;;;;;;;;;;;;;7.05;60.45;101681.69;5011750;28;11145;-77
2021/03/05 05:57:14;;;;;;;;;;;;;;;7.06;60.73;101683.47;4994241;28;11541;-79
2021/03/05 05:59:40;;;;;;;;;;;;;;;7.09;60.74;101687.88;4972329;28;6847;-78
2021/03/05 06:02:06;;;;;;;;;;;;;;;7.08;60.81;101691.28;4997291;28;7175;-76
2021/03/05 06:04:31;;;;;;;;;;;;;;;7.09;60.59;101690.47;4983669;28;8739;-76
2021/03/05 06:06:57;;;;;;;;;;;;;;;7.11;60.53;101696.59;4989297;28;6788;-76
2021/03/05 06:09:22;;;;;;;;;;;;;;;7.13;60.25;101688.13;5006230;28;6948;-78
2021/03/05 06:11:48;;;;;;;;;;;;;;;7.15;60.43;101695.94;5009995;28;7037;-76
2021/03/05 06:14:14;;;;;;;;;;;;;;;7.14;59.98;101705.41;5012061;28;7346;-77
2021/03/05 06:16:55;;;;;;;;;;;;;;;7.18;60.15;101702.16;5024132;28;7150;-78
2021/03/05 06:19:22;;;;;;;;;;;;;;;7.17;60.20;101702.97;5012505;28;10953;-76
2021/03/05 06:21:48;;;;;;;;;;;;;;;7.18;60.33;101704.75;4994834;28;6801;-77
2021/03/05 06:24:13;;;;;;;;;;;;;;;7.21;60.10;101716.97;5014781;28;7316;-77
2021/03/05 06:26:58;;;;;;;;;;;;;;;7.22;59.78;101723.91;5000000;28;6888;-76
2021/03/05 06:29:43;;;;;;;;;;;;;;;7.21;60.11;101728.19;4986661;28;14143;-78
2021/03/05 06:32:12;;;;;;;;;;;;;;;7.26;59.85;101723.25;4994930;28;6836;-76
2021/03/05 06:34:45;;;;;;;;;;;;;;;7.28;59.47;101731.97;4998733;28;7202;-77
2021/03/05 06:37:10;;;;;;;;;;;;;;;7.27;59.54;101732.78;5000609;28;7230;-76
2021/03/05 06:39:36;;;;;;;;;;;;;;;7.32;59.69;101733.88;5000592;28;8449;-77
2021/03/05 06:42:11;;;;;;;;;;;;;;;7.35;59.06;101746.97;4997685;28;6843;-75
2021/03/05 06:44:41;;;;;;;;;;;;;;;7.37;59.35;101745.34;5007965;28;8452;-76
2021/03/05 06:47:19;;;;;;;;;;;;;;;7.39;59.11;101759.22;4990161;28;8450;-76
2021/03/05 06:49:47;;;;;;;;;;;;;;;7.42;59.56;101766.28;4999639;28;11104;-77
2021/03/05 06:52:20;;;;;;;;;;;;;;;7.49;59.05;101771.84;4942634;28;11342;-76
2021/03/05 06:54:46;;;;;;;;;;;;;;;7.48;59.01;101772.63;4984644;28;11073;-77
2021/03/05 06:57:15;;;;;;;;;;;;;;;7.53;58.80;101771.16;4987578;28;7798;-77
2021/03/05 06:59:42;;;;;;;;;;;;;;;7.62;58.37;101779.41;4970812;28;6823;-78
2021/03/05 07:02:09;;;;;;;;;;;;;;;7.68;58.18;101785.72;4988825;28;6791;-76
2021/03/05 07:04:50;;;;;;;;;;;;;;;7.68;58.36;101788.28;4986190;28;6999;-77
2021/03/05 07:07:19;;;;;;;;;;;;;;;7.77;57.99;101799.09;4982227;28;13022;-76
2021/03/05 07:09:55;;;;;;;;;;;;;;;7.76;57.78;101805.97;4979373;28;11060;-77
2021/03/05 07:12:23;;;;;;;;;;;;;;;7.77;58.06;101812.03;4986342;28;12868;-77
2021/03/05 07:15:03;;;;;;;;;;;;;;;7.81;58.08;101816.56;4983636;28;7160;-77
2021/03/05 07:17:29;;;;;;;;;;;;;;;7.84;58.14;101812.44;4983862;28;7602;-77
2021/03/05 07:19:55;;;;;;;;;;;;;;;7.83;58.12;101825.28;4982821;28;7107;-78
2021/03/05 07:22:25;;;;;;;;;;;;;;;7.83;58.24;101820.13;4984157;28;8437;-77
2021/03/05 07:24:50;;;;;;;;;;;;;;;7.88;57.99;101832.47;5023118;28;6880;-76
2021/03/05 07:27:16;;;;;;;;;;;;;;;7.89;57.49;101830.75;5007046;28;7425;-77
2021/03/05 07:29:45;;;;;;;;;;;;;;;7.96;57.46;101832.84;5006403;28;7123;-77
2021/03/05 07:32:47;;;;;;;;;;;;;;;8.00;57.51;101839.06;5005413;28;7149;-77
2021/03/05 07:35:14;;;;;;;;;;;;;;;8.03;57.19;101842.72;5006816;28;11165;-76
2021/03/05 07:37:58;;;;;;;;;;;;;;;8.07;57.36;101847.22;4992510;28;7185;-77
2021/03/05 07:40:23;;;;;;;;;;;;;;;8.09;57.00;101852.47;5007752;28;11150;-76
2021/03/05 07:42:51;;;;;;;;;;;;;;;8.14;56.90;101844.13;5012218;28;6845;-76
2021/03/05 07:45:17;;;;;;;;;;;;;;;8.20;56.64;101849.59;5008947;28;11551;-76
2021/03/05 07:47:47;;;;;;;;;;;;;;;8.22;56.72;101848.00;5009738;28;7072;-76
2021/03/05 07:50:13;;;;;;;;;;;;;;;8.21;56.79;101856.59;4998289;28;7317;-77
2021/03/05 07:52:39;;;;;;;;;;;;;;;8.24;56.51;101863.59;5001886;28;7230;-77
2021/03/05 07:55:05;;;;;;;;;;;;;;;8.31;56.44;101855.31;4999061;28;6897;-77
2021/03/05 07:57:30;;;;;;;;;;;;;;;8.32;55.94;101867.44;5016390;28;7442;-76
2021/03/05 07:59:57;;;;;;;;;;;;;;;8.39;56.27;101876.44;5000663;28;7274;-77
2021/03/05 08:02:23;;;;;;;;;;;;;;;8.41;56.04;101875.72;4988574;28;7266;-77
2021/03/05 08:04:48;;;;;;;;;;;;;;;8.42;55.50;101876.63;4994452;28;7359;-77
2021/03/05 08:07:14;;;;;;;;;;;;;;;8.44;55.87;101877.56;4986933;28;6784;-78
2021/03/05 08:09:40;;;;;;;;;;;;;;;8.48;55.70;101866.56;4968924;28;7126;-78
2021/03/05 08:12:26;;;;;;;;;;;;;;;8.54;55.38;101892.72;4981927;28;6880;-77
2021/03/05 08:14:53;;;;;;;;;;;;;;;8.59;55.35;101888.66;4986173;28;11101;-76
2021/03/05 08:17:32;;;;;;;;;;;;;;;8.62;55.19;101895.72;4995743;28;9795;-77
2021/03/05 08:19:57;;;;;;;;;;;;;;;8.64;55.19;101894.97;4995620;28;11030;-75
2021/03/05 08:22:23;;;;;;;;;;;;;;;8.68;55.02;101891.72;5013727;28;7406;-75
2021/03/05 08:24:51;;;;;;;;;;;;;;;8.67;54.83;101895.13;4999201;28;6947;-76
2021/03/05 08:27:33;;;;;;;;;;;;;;;8.70;54.71;101890.09;4994290;28;11034;-76
2021/03/05 08:30:11;;;;;;;;;;;;;;;8.74;54.53;101902.38;5009281;28;11417;-76
2021/03/05 08:32:37;;;;;;;;;;;;;;;8.79;54.78;101903.47;5013291;28;6979;-76
2021/03/05 08:35:10;;;;;;;;;;;;;;;8.81;54.29;101909.66;4999458;28;6880;-76
2021/03/05 08:37:39;;;;;;;;;;;;;;;8.83;53.80;101913.19;5009051;28;7245;-76
2021/03/05 08:40:14;;;;;;;;;;;;;;;8.90;54.18;101913.50;5014018;28;7364;-76
2021/03/05 08:42:43;;;;;;;;;;;;;;;8.92;53.94;101927.41;4999988;28;7241;-75
2021/03/05 08:45:11;;;;;;;;;;;;;;;8.93;53.46;101924.00;5015046;28;8343;-76
2021/03/05 08:47:37;;;;;;;;;;;;;;;8.95;53.90;101919.78;5013332;28;7301;-75
2021/03/05 08:50:03;;;;;;;;;;;;;;;8.96;53.79;101918.97;4996812;28;6784;-75
2021/03/05 08:52:29;;;;;;;;;;;;;;;8.98;54.13;101925.97;4976272;28;7952;-75
2021/03/05 08:54:54;;;;;;;;;;;;;;;8.99;53.45;101924.28;4992634;28;7130;-75
2021/03/05 08:57:20;;;;;;;;;;;;;;;9.05;53.46;101930.66;4980549;28;7334;-75
2021/03/05 08:59:49;;;;;;;;;;;;;;;9.13;52.73;101926.72;4996081;28;7531;-76
2021/03/05 09:02:14;;;;;;;;;;;;;;;9.10;53.10;101934.34;5012852;28;7255;-75
2021/03/05 09:04:40;;;;;;;;;;;;;;;9.09;52.93;101939.47;4993408;28;6804;-76
2021/03/05 09:07:05;;;;;;;;;;;;;;;9.11;52.91;101937.84;4997375;28;6861;-75
2021/03/05 09:09:32;;;;;;;;;;;;;;;9.21;52.68;101940.06;5000015;28;6861;-75
2021/03/05 09:12:12;;;;;;;;;;;;;;;9.29;52.69;101941.31;4993128;28;7734;-75
2021/03/05 09:14:38;;;;;;;;;;;;;;;9.27;52.49;101936.88;4997658;28;8168;-76
2021/03/05 09:17:05;;;;;;;;;;;;;;;9.31;52.74;101942.25;4999323;28;7063;-75
2021/03/05 09:20:00;;;;;;;;;;;;;;;9.34;52.68;101947.59;4997318;28;8287;-76
2021/03/05 09:22:26;;;;;;;;;;;;;;;9.39;52.03;101959.06;4997808;28;11630;-77
2021/03/05 09:24:58;;;;;;;;;;;;;;;9.35;51.70;101956.25;4999097;28;6859;-76
2021/03/05 09:27:34;;;;;;;;;;;;;;;9.42;52.09;101964.41;4995664;28;12724;-76
2021/03/05 09:30:10;;;;;;;;;;;;;;;9.45;52.09;101963.66;5000025;28;7629;-76
2021/03/05 09:32:47;;;;;;;;;;;;;;;9.48;52.00;101962.91;4998720;28;7257;-76
2021/03/05 09:35:12;;;;;;;;;;;;;;;9.46;51.48;101955.06;4989931;28;8691;-75
2021/03/05 09:37:38;;;;;;;;;;;;;;;9.49;51.44;101965.56;4969841;28;7131;-76
2021/03/05 09:40:04;;;;;;;;;;;;;;;9.58;51.32;101967.69;4996718;28;6850;-76
2021/03/05 09:42:48;;;;;;;;;;;;;;;9.63;51.01;101966.22;4994629;28;7031;-76
2021/03/05 09:45:34;;;;;;;;;;;;;;;9.65;50.77;101972.38;4993885;28;6966;-76
2021/03/05 09:48:00;;;;;;;;;;;;;;;9.65;50.75;101962.88;4993262;28;11301;-77
2021/03/05 09:50:26;;;;;;;;;;;;;;;9.68;50.95;101969.91;4998358;28;7416;-76
2021/03/05 09:52:52;;;;;;;;;;;;;;;9.77;50.65;101966.03;4998794;28;7294;-76
2021/03/05 09:55:30;;;;;;;;;;;;;;;9.83;50.60;101987.91;4996795;28;7166;-76
2021/03/05 09:58:09;;;;;;;;;;;;;;;9.93;50.17;101990.97;5013046;28;11465;-76
2021/03/05 10:00:35;;;;;;;;;;;;;;;9.94;49.98;101987.56;4999400;28;7217;-76
2021/03/05 10:03:10;;;;;;;;;;;;;;;9.99;50.24;101996.44;4995740;28;7269;-75
2021/03/05 10:05:37;;;;;;;;;;;;;;;10.03;49.91;101993.19;4980710;28;7321;-75
2021/03/05 10:08:10;;;;;;;;;;;;;;;10.09;49.78;102000.34;4981224;28;8800;-76
2021/03/05 10:10:53;;;;;;;;;;;;;;;10.16;49.46;101999.78;5015175;28;6955;-76
2021/03/05 10:13:18;;;;;;;;;;;;;;;10.26;48.95;102006.34;4996124;28;7645;-76
2021/03/05 10:15:50;;;;;;;;;;;;;;;10.36;48.69;102006.78;4998100;28;8233;-76
2021/03/05 10:18:16;;;;;;;;;;;;;;;10.44;48.65;102011.44;4995151;28;6845;-76
2021/03/05 10:20:52;;;;;;;;;;;;;;;10.51;48.70;102001.38;4989937;28;7306;-76
2021/03/05 10:23:18;;;;;;;;;;;;;;;10.50;48.78;102009.13;4999246;28;7048;-77
2021/03/05 10:25:50;;;;;;;;;;;;;;;10.52;48.70;102013.53;4996478;28;6955;-76
2021/03/05 10:28:15;;;;;;;;;;;;;;;10.53;48.79;102004.94;4997974;28;6819;-76
2021/03/05 10:30:50;;;;;;;;;;;;;;;10.58;47.91;102000.81;5014212;28;7137;-76
2021/03/05 10:33:43;;;;;;;;;;;;;;;10.79;47.91;102005.16;4996747;28;7258;-76
2021/03/05 10:36:09;;;;;;;;;;;;;;;10.93;47.25;102009.22;4995985;28;11244;-76
2021/03/05 10:38:34;;;;;;;;;;;;;;;11.02;47.92;102003.53;4998178;28;7307;-75
2021/03/05 10:41:00;;;;;;;;;;;;;;;11.16;47.38;102012.78;4998633;28;7194;-75
2021/03/05 10:43:26;;;;;;;;;;;;;;;11.28;47.77;102008.97;5011404;28;7509;-76
2021/03/05 10:45:52;;;;;;;;;;;;;;;11.44;47.28;102014.78;4999124;28;6990;-76
2021/03/05 10:48:17;;;;;;;;;;;;;;;11.53;46.76;102018.63;4995959;28;7317;-76
2021/03/05 10:50:43;;;;;;;;;;;;;;;11.68;46.13;102028.75;5009445;28;7417;-76
2021/03/05 10:53:08;;;;;;;;;;;;;;;11.75;46.28;102022.06;4997499;28;7206;-76
2021/03/05 10:55:34;;;;;;;;;;;;;;;11.85;45.66;102017.31;5007703;28;7477;-75
2021/03/05 10:57:59;;;;;;;;;;;;;;;12.02;45.36;102023.16;5013901;28;8394;-75
2021/03/05 11:00:25;;;;;;;;;;;;;;;12.17;45.37;102021.13;4998981;28;8249;-75
2021/03/05 11:02:51;;;;;;;;;;;;;;;12.19;45.15;102028.97;4987963;28;7202;-76
2021/03/05 11:05:17;;;;;;;;;;;;;;;12.36;44.85;102021.78;4980855;28;8930;-76
2021/03/05 11:07:42;;;;;;;;;;;;;;;12.68;44.16;102023.84;4980437;28;7063;-76
2021/03/05 11:10:08;;;;;;;;;;;;;;;12.95;43.96;102028.22;4958169;28;6806;-75
2021/03/05 11:12:34;;;;;;;;;;;;;;;13.11;43.04;102040.94;4978528;28;7039;-76
2021/03/05 11:15:01;;;;;;;;;;;;;;;13.39;43.02;102043.63;4976934;28;7365;-76
2021/03/05 11:17:26;;;;;;;;;;;;;;;13.66;41.92;102046.25;4979710;28;7040;-75
2021/03/05 11:19:52;;;;;;;;;;;;;;;13.89;41.52;102044.34;4986400;28;7433;-75
2021/03/05 11:22:17;;;;;;;;;;;;;;;14.14;40.66;102052.91;4983770;28;7266;-76
2021/03/05 11:24:43;;;;;;;;;;;;;;;14.21;40.70;102055.72;4985467;28;7266;-76
2021/03/05 11:27:21;;;;;;;;;;;;;;;14.24;41.17;102050.63;4970877;28;7067;-76
2021/03/05 11:29:47;;;;;;;;;;;;;;;14.41;40.36;102053.69;4995805;28;7117;-74
2021/03/05 11:32:12;;;;;;;;;;;;;;;14.84;39.36;102061.03;4984204;28;7012;-74
2021/03/05 11:34:39;;;;;;;;;;;;;;;15.02;39.05;102067.59;4986587;28;7176;-75
2021/03/05 11:37:04;;;;;;;;;;;;;;;15.10;38.83;102061.72;4988234;28;7160;-75
2021/03/05 11:39:30;;;;;;;;;;;;;;;15.28;38.64;102060.41;4990631;28;7098;-75
2021/03/05 11:41:55;;;;;;;;;;;;;;;15.25;38.13;102065.56;5006051;28;7314;-75
2021/03/05 11:44:21;;;;;;;;;;;;;;;15.21;38.51;102072.44;4984326;28;6957;-75
2021/03/05 11:46:47;;;;;;;;;;;;;;;15.14;38.63;102065.28;4996444;28;7106;-75
2021/03/05 11:49:13;;;;;;;;;;;;;;;15.24;38.77;102075.16;4985182;28;6847;-74
2021/03/05 11:51:38;;;;;;;;;;;;;;;15.58;38.16;102074.22;4970237;28;6970;-75
2021/03/05 11:54:04;;;;;;;;;;;;;;;15.79;37.61;102069.53;4985870;28;7274;-75
2021/03/05 11:56:30;;;;;;;;;;;;;;;15.95;37.27;102076.00;5000302;28;6935;-74
2021/03/05 11:58:55;;;;;;;;;;;;;;;16.16;37.16;102075.56;4982465;28;9457;-75
2021/03/05 12:01:21;;;;;;;;;;;;;;;16.38;36.40;102071.66;4997481;28;7447;-75
2021/03/05 12:03:46;;;;;;;;;;;;;;;16.39;36.46;102073.44;4981873;28;6798;-75
2021/03/05 12:06:12;;;;;;;;;;;;;;;16.69;36.21;102079.34;4981183;28;8001;-74
2021/03/05 12:08:37;;;;;;;;;;;;;;;16.89;35.42;102077.09;4981365;28;7618;-75
2021/03/05 12:11:03;;;;;;;;;;;;;;;17.05;35.59;102075.63;4984157;28;6804;-75
2021/03/05 12:13:29;;;;;;;;;;;;;;;17.37;35.16;102075.28;4974248;28;7268;-75
2021/03/05 12:15:54;;;;;;;;;;;;;;;17.30;35.30;102072.56;4982559;28;7430;-75
2021/03/05 12:18:21;;;;;;;;;;;;;;;17.31;35.09;102073.44;4996434;28;8189;-74
2021/03/05 12:20:47;;;;;;;;;;;;;;;17.28;35.00;102070.78;4981733;28;8534;-77
2021/03/05 12:23:12;;;;;;;;;;;;;;;17.38;35.06;102077.03;4981299;28;7187;-75
2021/03/05 12:25:38;;;;;;;;;;;;;;;17.61;34.67;102078.28;4999386;28;8556;-76
2021/03/05 12:28:04;;;;;;;;;;;;;;;17.88;34.13;102091.00;4979557;28;7344;-78
2021/03/05 12:30:30;;;;;;;;;;;;;;;18.22;33.46;102088.00;4981666;28;8825;-75
2021/03/05 12:32:55;;;;;;;;;;;;;;;18.67;32.89;102091.19;4985415;28;11017;-75
2021/03/05 12:35:21;;;;;;;;;;;;;;;19.05;32.16;102084.59;4986338;28;6983;-75
2021/03/05 12:37:47;;;;;;;;;;;;;;;19.22;32.08;102083.84;4988429;28;7563;-75
2021/03/05 12:40:15;;;;;;;;;;;;;;;19.34;31.81;102086.59;4986711;28;6813;-75
2021/03/05 12:42:41;;;;;;;;;;;;;;;19.40;32.11;102084.00;4989892;28;7219;-76
2021/03/05 12:45:09;;;;;;;;;;;;;;;19.59;31.92;102077.16;4988289;28;6932;-75
2021/03/05 12:47:34;;;;;;;;;;;;;;;19.88;31.03;102082.63;4994665;28;7318;-77
2021/03/05 12:50:03;;;;;;;;;;;;;;;20.13;31.11;102079.25;4971856;28;7266;-83
2021/03/05 12:52:29;;;;;;;;;;;;;;;20.32;31.08;102080.22;4986669;28;11997;-78
2021/03/05 12:54:54;;;;;;;;;;;;;;;20.65;30.53;102085.66;4987422;28;7300;-79
2021/03/05 12:57:20;;;;;;;;;;;;;;;20.91;29.63;102079.56;5004956;28;8178;-79